Time;durP1;ratioP1;P1;durP2;ratioP2;P2;SDS_P1;SDS_P2;PMS_P1;PMS_P2;Temp;Humidity;BMP_temperature;BMP_pressure;BME280_temperature;BME280_humidity;BME280_pressure;Samples;Min_cycle;Max_cycle;Signal;HPM_P1;HPM_P2
2023/03/31 00:00:59;;;;;;;;;;;;;;;;;;5039112;28;19960;-38
2023/03/31 00:03:25;;;;;;;;;;;;;;;;;;5042073;28;19909;-40
2023/03/31 00:05:52;;;;;;;;;;;;;;;;;;5039385;28;20393;-37
2023/03/31 00:08:20;;;;;;;;;;;;;;;;;;5048658;28;19916;-41
2023/03/31 00:10:47;;;;;;;;;;;;;;;;;;5041776;28;19939;-38
2023/03/31 00:13:13;;;;;;;;;;;;;;;;;;5048323;28;19982;-38
2023/03/31 00:15:40;;;;;;;;;;;;;;;;;;5039684;28;19916;-40
2023/03/31 00:18:06;;;;;;;;;;;;;;;;;;5040044;28;19978;-36
2023/03/31 00:20:36;;;;;;;;;;;;;;;;;;5034381;28;19909;-38
2023/03/31 00:23:09;;;;;;;;;;;;;;;;;;5046199;28;19913;-37
2023/03/31 00:25:35;;;;;;;;;;;;;;;;;;5040632;28;19943;-38
2023/03/31 00:28:02;;;;;;;;;;;;;;;;;;5030498;28;19919;-37
2023/03/31 00:30:28;;;;;;;;;;;;;;;;;;5051119;28;19917;-38
2023/03/31 00:32:55;;;;;;;;;;;;;;;;;;5051355;28;19915;-37
2023/03/31 00:35:22;;;;;;;;;;;;;;;;;;5042747;28;20301;-37
2023/03/31 00:37:48;;;;;;;;;;;;;;;;;;5047117;28;19917;-37
2023/03/31 00:40:15;;;;;;;;;;;;;;;;;;5043321;28;20086;-38
2023/03/31 00:42:41;;;;;;;;;;;;;;;;;;5031082;28;19917;-38
2023/03/31 00:45:08;;;;;;;;;;;;;;;;;;5040999;28;19923;-38
2023/03/31 00:47:34;;;;;;;;;;;;;;;;;;5036957;28;19913;-38
2023/03/31 00:50:00;;;;;;;;;;;;;;;;;;5036301;28;19909;-38
2023/03/31 00:52:27;;;;;;;;;;;;;;;;;;5049581;28;19917;-38
2023/03/31 00:54:53;;;;;;;;;;;;;;;;;;5031200;28;20274;-38
2023/03/31 00:57:20;;;;;;;;;;;;;;;;;;5038861;28;19908;-38
2023/03/31 00:59:47;;;;;;;;;;;;;;;;;;5049127;28;19938;-38
2023/03/31 01:02:13;;;;;;;;;;;;;;;;;;5039791;28;20350;-37
2023/03/31 01:04:40;;;;;;;;;;;;;;;;;;5036005;28;19952;-37
2023/03/31 01:07:08;;;;;;;;;;;;;;;;;;5050880;28;19995;-37
2023/03/31 01:09:34;;;;;;;;;;;;;;;;;;5051577;28;19915;-37
2023/03/31 01:12:00;;;;;;;;;;;;;;;;;;5051504;28;20034;-37
2023/03/31 01:14:27;;;;;;;;;;;;;;;;;;5049960;28;19912;-38
2023/03/31 01:16:53;;;;;;;;;;;;;;;;;;5041497;28;19913;-37
2023/03/31 01:19:20;;;;;;;;;;;;;;;;;;5048760;28;20009;-37
2023/03/31 01:21:46;;;;;;;;;;;;;;;;;;5051502;28;19908;-38
2023/03/31 01:24:12;;;;;;;;;;;;;;;;;;5050706;28;19932;-38
2023/03/31 01:26:39;;;;;;;;;;;;;;;;;;5050202;28;20353;-37
2023/03/31 01:29:05;;;;;;;;;;;;;;;;;;5041618;28;19917;-37
2023/03/31 01:31:32;;;;;;;;;;;;;;;;;;5036393;28;19966;-37
2023/03/31 01:33:58;;;;;;;;;;;;;;;;;;5031718;28;20385;-37
2023/03/31 01:36:25;;;;;;;;;;;;;;;;;;5031487;28;20353;-37
2023/03/31 01:38:51;;;;;;;;;;;;;;;;;;5037375;28;20011;-38
2023/03/31 01:41:17;;;;;;;;;;;;;;;;;;5046003;28;19982;-37
2023/03/31 01:43:44;;;;;;;;;;;;;;;;;;5044846;28;19916;-38
2023/03/31 01:46:10;;;;;;;;;;;;;;;;;;5042400;28;19924;-37
2023/03/31 01:48:37;;;;;;;;;;;;;;;;;;5046490;28;20011;-37
2023/03/31 01:51:03;;;;;;;;;;;;;;;;;;5047791;28;19959;-37
2023/03/31 01:53:29;;;;;;;;;;;;;;;;;;5037705;28;19948;-38
2023/03/31 01:55:56;;;;;;;;;;;;;;;;;;5033327;28;20303;-37
2023/03/31 01:58:22;;;;;;;;;;;;;;;;;;5054927;28;20031;-37
2023/03/31 02:00:55;;;;;;;;;;;;;;;;;;5051035;28;19955;-37
2023/03/31 02:03:22;;;;;;;;;;;;;;;;;;5034645;28;19909;-37
2023/03/31 02:05:48;;;;;;;;;;;;;;;;;;5034812;28;19917;-37
2023/03/31 02:08:15;;;;;;;;;;;;;;;;;;5034806;28;20011;-37
2023/03/31 02:10:41;;;;;;;;;;;;;;;;;;5034809;28;19913;-37
2023/03/31 02:13:07;;;;;;;;;;;;;;;;;;5034706;28;19908;-37
2023/03/31 02:15:35;;;;;;;;;;;;;;;;;;5034632;28;20272;-37
2023/03/31 02:18:02;;;;;;;;;;;;;;;;;;5034634;28;19951;-37
2023/03/31 02:20:31;;;;;;;;;;;;;;;;;;5034769;28;20390;-37
2023/03/31 02:22:57;;;;;;;;;;;;;;;;;;5034381;28;20371;-37
2023/03/31 02:25:24;;;;;;;;;;;;;;;;;;5034542;28;19920;-37
2023/03/31 02:27:50;;;;;;;;;;;;;;;;;;5034517;28;20382;-37
2023/03/31 02:30:17;;;;;;;;;;;;;;;;;;5034300;28;19928;-37
2023/03/31 02:32:43;;;;;;;;;;;;;;;;;;5034423;28;19912;-37
2023/03/31 02:35:10;;;;;;;;;;;;;;;;;;5034444;28;19947;-37
2023/03/31 02:37:36;;;;;;;;;;;;;;;;;;5034363;28;19909;-37
2023/03/31 02:40:03;;;;;;;;;;;;;;;;;;5034305;28;20600;-37
2023/03/31 02:42:30;;;;;;;;;;;;;;;;;;5034175;28;19963;-37
2023/03/31 02:44:56;;;;;;;;;;;;;;;;;;5034175;28;19978;-37
2023/03/31 02:47:23;;;;;;;;;;;;;;;;;;5034245;28;19913;-37
2023/03/31 02:49:49;;;;;;;;;;;;;;;;;;5033264;28;19917;-37
2023/03/31 02:52:15;;;;;;;;;;;;;;;;;;5034010;28;20004;-37
2023/03/31 02:54:42;;;;;;;;;;;;;;;;;;5034036;28;19931;-37
2023/03/31 02:57:08;;;;;;;;;;;;;;;;;;5034076;28;19913;-37
2023/03/31 02:59:35;;;;;;;;;;;;;;;;;;5033967;28;19963;-37
2023/03/31 03:02:01;;;;;;;;;;;;;;;;;;5033728;28;19917;-37
2023/03/31 03:04:28;;;;;;;;;;;;;;;;;;5033775;28;19913;-37
2023/03/31 03:06:56;;;;;;;;;;;;;;;;;;5033753;28;20346;-37
2023/03/31 03:09:22;;;;;;;;;;;;;;;;;;5033703;28;19913;-37
2023/03/31 03:11:49;;;;;;;;;;;;;;;;;;5033731;28;20367;-37
2023/03/31 03:14:15;;;;;;;;;;;;;;;;;;5033594;28;20618;-37
2023/03/31 03:16:42;;;;;;;;;;;;;;;;;;5033641;28;19909;-37
2023/03/31 03:19:08;;;;;;;;;;;;;;;;;;5033580;28;19909;-37
2023/03/31 03:21:34;;;;;;;;;;;;;;;;;;5033491;28;19952;-37
2023/03/31 03:24:01;;;;;;;;;;;;;;;;;;5033470;28;19995;-37
2023/03/31 03:26:27;;;;;;;;;;;;;;;;;;5033400;28;19928;-37
2023/03/31 03:28:54;;;;;;;;;;;;;;;;;;5033137;28;19947;-37
2023/03/31 03:31:22;;;;;;;;;;;;;;;;;;5033125;28;19963;-37
2023/03/31 03:33:49;;;;;;;;;;;;;;;;;;5033185;28;19935;-37
2023/03/31 03:36:15;;;;;;;;;;;;;;;;;;5033273;28;19963;-37
2023/03/31 03:38:41;;;;;;;;;;;;;;;;;;5033186;28;19955;-37
2023/03/31 03:41:08;;;;;;;;;;;;;;;;;;5033087;28;20322;-37
2023/03/31 03:43:34;;;;;;;;;;;;;;;;;;5033061;28;19959;-37
2023/03/31 03:46:00;;;;;;;;;;;;;;;;;;5033057;28;19917;-37
2023/03/31 03:48:27;;;;;;;;;;;;;;;;;;5032944;28;19913;-37
2023/03/31 03:50:54;;;;;;;;;;;;;;;;;;5032915;28;19917;-37
2023/03/31 03:53:20;;;;;;;;;;;;;;;;;;5032883;28;19962;-37
2023/03/31 03:55:49;;;;;;;;;;;;;;;;;;5032898;28;20003;-37
2023/03/31 03:58:16;;;;;;;;;;;;;;;;;;5032887;28;19912;-37
2023/03/31 04:00:44;;;;;;;;;;;;;;;;;;5032803;28;19912;-37
2023/03/31 04:03:10;;;;;;;;;;;;;;;;;;5032664;28;19909;-37
2023/03/31 04:05:36;;;;;;;;;;;;;;;;;;5032715;28;20302;-37
2023/03/31 04:08:04;;;;;;;;;;;;;;;;;;5032657;28;19913;-37
2023/03/31 04:10:31;;;;;;;;;;;;;;;;;;5032565;28;19963;-37
2023/03/31 04:12:57;;;;;;;;;;;;;;;;;;5032468;28;19974;-37
2023/03/31 04:15:24;;;;;;;;;;;;;;;;;;5032516;28;20418;-37
2023/03/31 04:17:53;;;;;;;;;;;;;;;;;;5032599;28;19996;-37
2023/03/31 04:20:19;;;;;;;;;;;;;;;;;;5032445;28;19913;-37
2023/03/31 04:22:49;;;;;;;;;;;;;;;;;;5032354;28;19916;-37
2023/03/31 04:25:15;;;;;;;;;;;;;;;;;;5032274;28;19932;-37
2023/03/31 04:27:59;;;;;;;;;;;;;;;;;;5032442;28;19917;-37
2023/03/31 04:30:29;;;;;;;;;;;;;;;;;;5031981;28;19917;-37
2023/03/31 04:32:56;;;;;;;;;;;;;;;;;;5032158;28;19913;-37
2023/03/31 04:35:22;;;;;;;;;;;;;;;;;;5032307;28;19912;-37
2023/03/31 04:37:48;;;;;;;;;;;;;;;;;;5032172;28;20011;-37
2023/03/31 04:40:15;;;;;;;;;;;;;;;;;;5032126;28;20306;-37
2023/03/31 04:42:41;;;;;;;;;;;;;;;;;;5031965;28;19909;-37
2023/03/31 04:45:08;;;;;;;;;;;;;;;;;;5032067;28;19913;-37
2023/03/31 04:47:34;;;;;;;;;;;;;;;;;;5014395;28;19963;-37
2023/03/31 04:50:00;;;;;;;;;;;;;;;;;;5032158;28;19992;-37
2023/03/31 04:52:27;;;;;;;;;;;;;;;;;;5031988;28;19913;-37
2023/03/31 04:54:53;;;;;;;;;;;;;;;;;;5032076;28;19952;-37
2023/03/31 04:57:20;;;;;;;;;;;;;;;;;;5032073;28;19995;-37
2023/03/31 04:59:46;;;;;;;;;;;;;;;;;;5031981;28;19912;-37
2023/03/31 05:02:13;;;;;;;;;;;;;;;;;;5031853;28;19920;-37
2023/03/31 05:04:40;;;;;;;;;;;;;;;;;;5031846;28;20378;-37
2023/03/31 05:07:06;;;;;;;;;;;;;;;;;;5031941;28;19952;-37
2023/03/31 05:09:33;;;;;;;;;;;;;;;;;;5031986;28;19913;-37
2023/03/31 05:11:59;;;;;;;;;;;;;;;;;;5031830;28;19913;-37
2023/03/31 05:14:25;;;;;;;;;;;;;;;;;;5034492;28;19948;-37
2023/03/31 05:16:52;;;;;;;;;;;;;;;;;;5035917;28;19948;-37
2023/03/31 05:19:18;;;;;;;;;;;;;;;;;;5035874;28;19913;-37
2023/03/31 05:21:45;;;;;;;;;;;;;;;;;;5035674;28;19916;-37
2023/03/31 05:24:11;;;;;;;;;;;;;;;;;;5035577;28;19938;-37
2023/03/31 05:26:39;;;;;;;;;;;;;;;;;;5035724;28;20378;-37
2023/03/31 05:29:06;;;;;;;;;;;;;;;;;;5035410;28;19995;-36
2023/03/31 05:31:32;;;;;;;;;;;;;;;;;;5035394;28;19920;-36
2023/03/31 05:33:59;;;;;;;;;;;;;;;;;;5035557;28;19917;-36
2023/03/31 05:36:25;;;;;;;;;;;;;;;;;;5035537;28;20377;-37
2023/03/31 05:38:52;;;;;;;;;;;;;;;;;;5035578;28;20379;-37
2023/03/31 05:41:18;;;;;;;;;;;;;;;;;;5035439;28;19913;-37
2023/03/31 05:43:45;;;;;;;;;;;;;;;;;;5035465;28;19909;-37
2023/03/31 05:46:11;;;;;;;;;;;;;;;;;;5035371;28;19928;-37
2023/03/31 05:48:38;;;;;;;;;;;;;;;;;;5035269;28;20008;-37
2023/03/31 05:51:04;;;;;;;;;;;;;;;;;;5035190;28;19963;-37
2023/03/31 05:53:30;;;;;;;;;;;;;;;;;;5035266;28;19997;-37
2023/03/31 05:55:57;;;;;;;;;;;;;;;;;;5035163;28;19932;-37
2023/03/31 05:58:24;;;;;;;;;;;;;;;;;;5035074;28;19917;-37
2023/03/31 06:00:52;;;;;;;;;;;;;;;;;;5033521;28;19909;-37
2023/03/31 06:03:19;;;;;;;;;;;;;;;;;;5034926;28;19939;-37
2023/03/31 06:05:46;;;;;;;;;;;;;;;;;;5034886;28;20386;-37
2023/03/31 06:08:12;;;;;;;;;;;;;;;;;;5034943;28;19959;-38
2023/03/31 06:10:40;;;;;;;;;;;;;;;;;;5034810;28;19913;-37
2023/03/31 06:13:06;;;;;;;;;;;;;;;;;;5034915;28;19909;-37
2023/03/31 06:15:33;;;;;;;;;;;;;;;;;;5034864;28;20342;-37
2023/03/31 06:17:59;;;;;;;;;;;;;;;;;;5034765;28;19975;-38
2023/03/31 06:20:25;;;;;;;;;;;;;;;;;;5016916;28;20290;-37
2023/03/31 06:22:52;;;;;;;;;;;;;;;;;;5034563;28;19988;-37
2023/03/31 06:25:18;;;;;;;;;;;;;;;;;;5015391;28;19917;-37
2023/03/31 06:27:44;;;;;;;;;;;;;;;;;;5034564;28;20003;-37
2023/03/31 06:30:11;;;;;;;;;;;;;;;;;;5034345;28;19925;-37
2023/03/31 06:32:37;;;;;;;;;;;;;;;;;;5034424;28;19909;-37
2023/03/31 06:35:04;;;;;;;;;;;;;;;;;;5034609;28;19917;-37
2023/03/31 06:37:30;;;;;;;;;;;;;;;;;;5034432;28;19945;-37
2023/03/31 06:39:56;;;;;;;;;;;;;;;;;;5034313;28;19909;-37
2023/03/31 06:42:23;;;;;;;;;;;;;;;;;;5034327;28;19936;-37
2023/03/31 06:44:50;;;;;;;;;;;;;;;;;;5034336;28;19913;-38
2023/03/31 06:47:16;;;;;;;;;;;;;;;;;;5034252;28;19959;-37
2023/03/31 06:49:42;;;;;;;;;;;;;;;;;;5034204;28;19909;-37
2023/03/31 06:52:09;;;;;;;;;;;;;;;;;;5033986;28;19913;-37
2023/03/31 06:54:35;;;;;;;;;;;;;;;;;;5034223;28;19909;-38
2023/03/31 06:57:01;;;;;;;;;;;;;;;;;;5034084;28;19916;-37
2023/03/31 06:59:28;;;;;;;;;;;;;;;;;;5034083;28;19943;-37
2023/03/31 07:01:54;;;;;;;;;;;;;;;;;;5033871;28;19913;-37
2023/03/31 07:04:21;;;;;;;;;;;;;;;;;;5016053;28;20378;-37
2023/03/31 07:06:47;;;;;;;;;;;;;;;;;;5033817;28;19913;-37
2023/03/31 07:09:13;;;;;;;;;;;;;;;;;;5033787;28;19916;-37
2023/03/31 07:11:40;;;;;;;;;;;;;;;;;;5033728;28;19947;-37
2023/03/31 07:14:06;;;;;;;;;;;;;;;;;;5033726;28;19912;-37
2023/03/31 07:16:33;;;;;;;;;;;;;;;;;;5033740;28;19916;-37
2023/03/31 07:19:02;;;;;;;;;;;;;;;;;;5033616;28;19915;-37
2023/03/31 07:21:28;;;;;;;;;;;;;;;;;;5033500;28;19917;-37
2023/03/31 07:23:55;;;;;;;;;;;;;;;;;;5033630;28;19917;-37
2023/03/31 07:26:23;;;;;;;;;;;;;;;;;;5033508;28;19917;-37
2023/03/31 07:28:50;;;;;;;;;;;;;;;;;;5033165;28;20387;-37
2023/03/31 07:31:17;;;;;;;;;;;;;;;;;;5033237;28;19919;-37
2023/03/31 07:33:43;;;;;;;;;;;;;;;;;;5033414;28;19913;-37
2023/03/31 07:36:10;;;;;;;;;;;;;;;;;;5033211;28;20260;-37
2023/03/31 07:38:36;;;;;;;;;;;;;;;;;;5033207;28;19920;-37
2023/03/31 07:41:02;;;;;;;;;;;;;;;;;;5033228;28;19909;-37
2023/03/31 07:43:29;;;;;;;;;;;;;;;;;;5033122;28;20311;-38
2023/03/31 07:45:55;;;;;;;;;;;;;;;;;;5033030;28;19928;-37
2023/03/31 07:48:21;;;;;;;;;;;;;;;;;;5033093;28;19909;-37
2023/03/31 07:50:50;;;;;;;;;;;;;;;;;;5032887;28;20291;-37
2023/03/31 07:53:16;;;;;;;;;;;;;;;;;;5032856;28;19913;-37
2023/03/31 07:55:43;;;;;;;;;;;;;;;;;;5032998;28;19940;-37
2023/03/31 07:58:10;;;;;;;;;;;;;;;;;;5032712;28;20337;-37
2023/03/31 08:00:37;;;;;;;;;;;;;;;;;;5032647;28;20358;-37
2023/03/31 08:03:03;;;;;;;;;;;;;;;;;;5032693;28;19909;-37
2023/03/31 08:05:30;;;;;;;;;;;;;;;;;;5032724;28;19924;-37
2023/03/31 08:07:56;;;;;;;;;;;;;;;;;;5032764;28;20003;-38
2023/03/31 08:10:22;;;;;;;;;;;;;;;;;;5032691;28;19913;-37
2023/03/31 08:12:49;;;;;;;;;;;;;;;;;;5032537;28;19999;-37
2023/03/31 08:15:15;;;;;;;;;;;;;;;;;;5032600;28;20309;-37
2023/03/31 08:17:42;;;;;;;;;;;;;;;;;;5032602;28;20339;-37
2023/03/31 08:20:09;;;;;;;;;;;;;;;;;;5032371;28;20341;-38
2023/03/31 08:22:35;;;;;;;;;;;;;;;;;;5032177;28;19955;-37
2023/03/31 08:25:01;;;;;;;;;;;;;;;;;;5032281;28;19924;-38
2023/03/31 08:27:28;;;;;;;;;;;;;;;;;;5032391;28;19913;-37
2023/03/31 08:29:54;;;;;;;;;;;;;;;;;;5032155;28;20302;-37
2023/03/31 08:32:21;;;;;;;;;;;;;;;;;;5032269;28;19909;-37
2023/03/31 08:34:47;;;;;;;;;;;;;;;;;;5032319;28;19913;-38
2023/03/31 08:37:13;;;;;;;;;;;;;;;;;;5032247;28;19917;-37
2023/03/31 08:39:40;;;;;;;;;;;;;;;;;;5032246;28;20300;-37
2023/03/31 08:42:06;;;;;;;;;;;;;;;;;;5032228;28;19909;-37
2023/03/31 08:44:33;;;;;;;;;;;;;;;;;;5032179;28;19923;-37
2023/03/31 08:46:59;;;;;;;;;;;;;;;;;;5032089;28;19913;-37
2023/03/31 08:49:26;;;;;;;;;;;;;;;;;;5031353;28;19984;-37
2023/03/31 08:51:52;;;;;;;;;;;;;;;;;;5032016;28;19912;-37
2023/03/31 08:54:18;;;;;;;;;;;;;;;;;;5032099;28;20060;-37
2023/03/31 08:56:45;;;;;;;;;;;;;;;;;;5032047;28;19948;-37
2023/03/31 08:59:11;;;;;;;;;;;;;;;;;;5031963;28;20307;-37
2023/03/31 09:01:38;;;;;;;;;;;;;;;;;;5031948;28;19994;-37
2023/03/31 09:04:04;;;;;;;;;;;;;;;;;;5031487;28;20032;-37
2023/03/31 09:06:30;;;;;;;;;;;;;;;;;;5031832;28;19921;-37
2023/03/31 09:08:57;;;;;;;;;;;;;;;;;;5031616;28;20432;-37
2023/03/31 09:11:23;;;;;;;;;;;;;;;;;;5031470;28;19909;-37
2023/03/31 09:13:50;;;;;;;;;;;;;;;;;;5049965;28;19916;-37
2023/03/31 09:16:16;;;;;;;;;;;;;;;;;;5051801;28;19912;-37
2023/03/31 09:18:45;;;;;;;;;;;;;;;;;;5042913;28;19956;-37
2023/03/31 09:21:12;;;;;;;;;;;;;;;;;;5039661;28;19920;-38
2023/03/31 09:23:38;;;;;;;;;;;;;;;;;;5048438;28;19920;-37
2023/03/31 09:26:04;;;;;;;;;;;;;;;;;;5030900;28;20373;-38
2023/03/31 09:28:31;;;;;;;;;;;;;;;;;;5038622;28;19912;-38
2023/03/31 09:30:57;;;;;;;;;;;;;;;;;;5043301;28;19944;-37
2023/03/31 09:33:26;;;;;;;;;;;;;;;;;;5042381;28;19913;-38
2023/03/31 09:35:52;;;;;;;;;;;;;;;;;;5030559;28;19908;-38
2023/03/31 09:38:18;;;;;;;;;;;;;;;;;;5040332;28;19966;-37
2023/03/31 09:40:45;;;;;;;;;;;;;;;;;;5036373;28;19950;-37
2023/03/31 09:43:11;;;;;;;;;;;;;;;;;;5034298;28;19963;-38
2023/03/31 09:45:38;;;;;;;;;;;;;;;;;;5037291;28;20358;-36
2023/03/31 09:48:05;;;;;;;;;;;;;;;;;;5051441;28;19920;-37
2023/03/31 09:50:32;;;;;;;;;;;;;;;;;;5051211;28;19908;-36
2023/03/31 09:52:58;;;;;;;;;;;;;;;;;;5051465;28;19912;-36
2023/03/31 09:55:25;;;;;;;;;;;;;;;;;;5051356;28;19909;-37
2023/03/31 09:57:52;;;;;;;;;;;;;;;;;;5051503;28;19963;-37
2023/03/31 10:00:18;;;;;;;;;;;;;;;;;;5053384;28;19909;-37
2023/03/31 10:02:45;;;;;;;;;;;;;;;;;;5055130;28;19951;-36
2023/03/31 10:05:11;;;;;;;;;;;;;;;;;;5054984;28;19970;-37
2023/03/31 10:07:37;;;;;;;;;;;;;;;;;;5055077;28;19919;-37
2023/03/31 10:10:04;;;;;;;;;;;;;;;;;;5054846;28;20381;-37
2023/03/31 10:12:30;;;;;;;;;;;;;;;;;;5054750;28;19947;-37
2023/03/31 10:14:57;;;;;;;;;;;;;;;;;;5054792;28;19916;-37
2023/03/31 10:17:23;;;;;;;;;;;;;;;;;;5054746;28;20265;-37
2023/03/31 10:19:50;;;;;;;;;;;;;;;;;;5054723;28;19913;-37
2023/03/31 10:22:16;;;;;;;;;;;;;;;;;;5054553;28;19920;-36
2023/03/31 10:24:42;;;;;;;;;;;;;;;;;;5054572;28;19927;-37
2023/03/31 10:27:09;;;;;;;;;;;;;;;;;;5054612;28;19908;-37
2023/03/31 10:29:36;;;;;;;;;;;;;;;;;;5054196;28;20341;-37
2023/03/31 10:32:02;;;;;;;;;;;;;;;;;;5054395;28;19940;-37
2023/03/31 10:34:28;;;;;;;;;;;;;;;;;;5054344;28;19962;-37
2023/03/31 10:36:55;;;;;;;;;;;;;;;;;;5054417;28;19913;-37
2023/03/31 10:39:21;;;;;;;;;;;;;;;;;;5054376;28;19912;-37
2023/03/31 10:41:48;;;;;;;;;;;;;;;;;;5054092;28;19913;-37
2023/03/31 10:44:14;;;;;;;;;;;;;;;;;;5054139;28;20050;-37
2023/03/31 10:46:41;;;;;;;;;;;;;;;;;;5047256;28;20632;-37
2023/03/31 10:49:07;;;;;;;;;;;;;;;;;;5047553;28;19916;-37
2023/03/31 10:51:34;;;;;;;;;;;;;;;;;;5053618;28;19931;-37
2023/03/31 10:54:03;;;;;;;;;;;;;;;;;;5053936;28;19908;-37
2023/03/31 10:56:30;;;;;;;;;;;;;;;;;;5053959;28;20429;-37
2023/03/31 10:58:57;;;;;;;;;;;;;;;;;;5053840;28;20298;-36
2023/03/31 11:01:23;;;;;;;;;;;;;;;;;;5053840;28;19909;-37
2023/03/31 11:03:50;;;;;;;;;;;;;;;;;;5053944;28;19939;-37
2023/03/31 11:06:16;;;;;;;;;;;;;;;;;;5053782;28;19923;-37
2023/03/31 11:08:42;;;;;;;;;;;;;;;;;;5051781;28;19919;-38
2023/03/31 11:11:09;;;;;;;;;;;;;;;;;;5034865;28;19909;-36
2023/03/31 11:13:35;;;;;;;;;;;;;;;;;;5033546;28;20746;-37
2023/03/31 11:16:02;;;;;;;;;;;;;;;;;;5033475;28;20429;-37
2023/03/31 11:18:28;;;;;;;;;;;;;;;;;;5033434;28;19959;-39
2023/03/31 11:20:55;;;;;;;;;;;;;;;;;;5033206;28;20450;-38
2023/03/31 11:23:21;;;;;;;;;;;;;;;;;;5033435;28;19936;-38
2023/03/31 11:25:47;;;;;;;;;;;;;;;;;;5050557;28;19920;-39
2023/03/31 11:28:14;;;;;;;;;;;;;;;;;;5053086;28;19918;-39
2023/03/31 11:30:40;;;;;;;;;;;;;;;;;;5041932;28;19928;-40
2023/03/31 11:33:07;;;;;;;;;;;;;;;;;;5036823;28;19913;-37
2023/03/31 11:35:34;;;;;;;;;;;;;;;;;;5041638;28;19966;-38
2023/03/31 11:38:01;;;;;;;;;;;;;;;;;;5039263;28;19920;-37
2023/03/31 11:40:27;;;;;;;;;;;;;;;;;;5043326;28;19916;-37
2023/03/31 11:42:54;;;;;;;;;;;;;;;;;;5041896;28;19917;-39
2023/03/31 11:45:21;;;;;;;;;;;;;;;;;;5043625;28;19917;-38
2023/03/31 11:47:47;;;;;;;;;;;;;;;;;;5042988;28;19916;-39
2023/03/31 11:50:13;;;;;;;;;;;;;;;;;;5034518;28;20016;-38
2023/03/31 11:52:40;;;;;;;;;;;;;;;;;;5032714;28;20267;-38
2023/03/31 11:55:06;;;;;;;;;;;;;;;;;;5032808;28;19916;-38
2023/03/31 11:57:33;;;;;;;;;;;;;;;;;;5032797;28;19909;-38
2023/03/31 11:59:59;;;;;;;;;;;;;;;;;;5032747;28;19916;-38
2023/03/31 12:02:25;;;;;;;;;;;;;;;;;;5032667;28;20012;-38
2023/03/31 12:04:52;;;;;;;;;;;;;;;;;;5038194;28;19917;-38
2023/03/31 12:07:18;;;;;;;;;;;;;;;;;;5039531;28;20007;-38
2023/03/31 12:09:45;;;;;;;;;;;;;;;;;;5037292;28;20383;-37
2023/03/31 12:12:11;;;;;;;;;;;;;;;;;;5051380;28;19913;-36
2023/03/31 12:14:38;;;;;;;;;;;;;;;;;;5051912;28;19912;-37
2023/03/31 12:17:04;;;;;;;;;;;;;;;;;;5051831;28;19944;-38
2023/03/31 12:19:34;;;;;;;;;;;;;;;;;;5052079;28;19915;-37
2023/03/31 12:22:00;;;;;;;;;;;;;;;;;;5051618;28;19912;-36
2023/03/31 12:24:26;;;;;;;;;;;;;;;;;;5052108;28;19954;-39
2023/03/31 12:26:53;;;;;;;;;;;;;;;;;;5052035;28;19958;-39
2023/03/31 12:29:19;;;;;;;;;;;;;;;;;;5051876;28;19959;-39
2023/03/31 12:31:46;;;;;;;;;;;;;;;;;;5051536;28;19935;-37
2023/03/31 12:34:12;;;;;;;;;;;;;;;;;;5051811;28;20302;-38
2023/03/31 12:36:39;;;;;;;;;;;;;;;;;;5051755;28;19909;-37
2023/03/31 12:39:05;;;;;;;;;;;;;;;;;;5051840;28;19971;-38
2023/03/31 12:41:31;;;;;;;;;;;;;;;;;;5051488;28;19912;-37
2023/03/31 12:43:58;;;;;;;;;;;;;;;;;;5051761;28;19916;-37
2023/03/31 12:46:24;;;;;;;;;;;;;;;;;;5051782;28;19920;-37
2023/03/31 12:48:51;;;;;;;;;;;;;;;;;;5051636;28;20305;-37
2023/03/31 12:51:17;;;;;;;;;;;;;;;;;;5051240;28;19915;-37
2023/03/31 12:53:43;;;;;;;;;;;;;;;;;;5051703;28;19992;-37
2023/03/31 12:56:10;;;;;;;;;;;;;;;;;;5051673;28;19913;-37
2023/03/31 12:58:36;;;;;;;;;;;;;;;;;;5051536;28;19908;-37
2023/03/31 13:01:06;;;;;;;;;;;;;;;;;;5050858;28;19913;-38
2023/03/31 13:03:33;;;;;;;;;;;;;;;;;;5051787;28;19995;-37
2023/03/31 13:05:59;;;;;;;;;;;;;;;;;;5040939;28;20350;-38
2023/03/31 13:08:26;;;;;;;;;;;;;;;;;;5042434;28;20374;-38
2023/03/31 13:10:52;;;;;;;;;;;;;;;;;;5045490;28;19919;-38
2023/03/31 13:13:19;;;;;;;;;;;;;;;;;;5045194;28;20392;-38
2023/03/31 13:15:45;;;;;;;;;;;;;;;;;;5051793;28;20413;-39
2023/03/31 13:18:12;;;;;;;;;;;;;;;;;;5051729;28;20008;-40
2023/03/31 13:20:39;;;;;;;;;;;;;;;;;;5051563;28;19913;-39
2023/03/31 13:23:05;;;;;;;;;;;;;;;;;;5051234;28;20366;-39
2023/03/31 13:25:32;;;;;;;;;;;;;;;;;;5051391;28;20018;-39
2023/03/31 13:27:58;;;;;;;;;;;;;;;;;;5051650;28;20373;-40
2023/03/31 13:30:24;;;;;;;;;;;;;;;;;;5051328;28;19960;-39
2023/03/31 13:32:51;;;;;;;;;;;;;;;;;;5051571;28;19967;-39
2023/03/31 13:35:17;;;;;;;;;;;;;;;;;;5053711;28;19913;-39
2023/03/31 13:37:44;;;;;;;;;;;;;;;;;;5055337;28;19908;-39
2023/03/31 13:40:11;;;;;;;;;;;;;;;;;;5055226;28;19908;-39
2023/03/31 13:42:37;;;;;;;;;;;;;;;;;;5055190;28;19966;-39
2023/03/31 13:45:04;;;;;;;;;;;;;;;;;;5055088;28;20400;-40
2023/03/31 13:47:30;;;;;;;;;;;;;;;;;;5055039;28;19995;-39
2023/03/31 13:49:56;;;;;;;;;;;;;;;;;;5037136;28;20279;-39
2023/03/31 13:52:23;;;;;;;;;;;;;;;;;;5055177;28;20402;-40
2023/03/31 13:54:49;;;;;;;;;;;;;;;;;;5055098;28;20378;-40
2023/03/31 13:57:15;;;;;;;;;;;;;;;;;;5055042;28;19913;-39
2023/03/31 13:59:42;;;;;;;;;;;;;;;;;;5054955;28;19963;-39
2023/03/31 14:02:08;;;;;;;;;;;;;;;;;;5054902;28;20286;-39
2023/03/31 14:04:35;;;;;;;;;;;;;;;;;;5054883;28;19912;-39
2023/03/31 14:07:01;;;;;;;;;;;;;;;;;;5054835;28;19943;-40
2023/03/31 14:09:27;;;;;;;;;;;;;;;;;;5054793;28;19991;-39
2023/03/31 14:11:55;;;;;;;;;;;;;;;;;;5054692;28;19912;-39
2023/03/31 14:14:22;;;;;;;;;;;;;;;;;;5054596;28;20333;-40
2023/03/31 14:16:49;;;;;;;;;;;;;;;;;;5054584;28;19912;-40
2023/03/31 14:19:15;;;;;;;;;;;;;;;;;;5054634;28;19909;-40
2023/03/31 14:21:41;;;;;;;;;;;;;;;;;;5054416;28;19943;-40
2023/03/31 14:24:08;;;;;;;;;;;;;;;;;;5054549;28;19912;-40
2023/03/31 14:26:34;;;;;;;;;;;;;;;;;;5054394;28;20030;-40
2023/03/31 14:29:00;;;;;;;;;;;;;;;;;;5054096;28;19921;-40
2023/03/31 14:31:27;;;;;;;;;;;;;;;;;;5054283;28;19930;-40
2023/03/31 14:33:53;;;;;;;;;;;;;;;;;;5054214;28;19954;-40
2023/03/31 14:36:20;;;;;;;;;;;;;;;;;;5054161;28;20001;-40
2023/03/31 14:38:46;;;;;;;;;;;;;;;;;;5054082;28;19912;-39
2023/03/31 14:41:13;;;;;;;;;;;;;;;;;;5054144;28;19912;-40
2023/03/31 14:43:39;;;;;;;;;;;;;;;;;;5054114;28;19916;-40
2023/03/31 14:46:06;;;;;;;;;;;;;;;;;;5052780;28;19917;-40
2023/03/31 14:48:32;;;;;;;;;;;;;;;;;;5054118;28;19913;-40
2023/03/31 14:50:58;;;;;;;;;;;;;;;;;;5053777;28;19915;-40
2023/03/31 14:53:25;;;;;;;;;;;;;;;;;;5053924;28;19963;-40
2023/03/31 14:55:52;;;;;;;;;;;;;;;;;;5054019;28;19968;-40
2023/03/31 14:58:18;;;;;;;;;;;;;;;;;;5053920;28;19912;-40
2023/03/31 15:00:44;;;;;;;;;;;;;;;;;;5053782;28;19916;-40
2023/03/31 15:03:12;;;;;;;;;;;;;;;;;;5053744;28;19916;-40
2023/03/31 15:05:39;;;;;;;;;;;;;;;;;;5053517;28;19920;-40
2023/03/31 15:08:05;;;;;;;;;;;;;;;;;;5053621;28;20001;-40
2023/03/31 15:10:31;;;;;;;;;;;;;;;;;;5053448;28;19928;-40
2023/03/31 15:12:58;;;;;;;;;;;;;;;;;;5053585;28;20286;-40
2023/03/31 15:15:24;;;;;;;;;;;;;;;;;;5053529;28;20042;-40
2023/03/31 15:17:50;;;;;;;;;;;;;;;;;;5053340;28;19919;-40
2023/03/31 15:20:17;;;;;;;;;;;;;;;;;;5053387;28;19908;-40
2023/03/31 15:22:43;;;;;;;;;;;;;;;;;;5049321;28;19995;-40
2023/03/31 15:25:09;;;;;;;;;;;;;;;;;;5052900;28;19921;-40
2023/03/31 15:27:36;;;;;;;;;;;;;;;;;;5052550;28;19982;-40
2023/03/31 15:30:02;;;;;;;;;;;;;;;;;;5051479;28;19929;-42
2023/03/31 15:32:29;;;;;;;;;;;;;;;;;;5052821;28;19913;-40
2023/03/31 15:34:56;;;;;;;;;;;;;;;;;;5051400;28;19908;-41
2023/03/31 15:37:22;;;;;;;;;;;;;;;;;;5048924;28;19913;-40
2023/03/31 15:39:49;;;;;;;;;;;;;;;;;;5045059;28;20259;-41
2023/03/31 15:42:15;;;;;;;;;;;;;;;;;;5043276;28;19917;-41
2023/03/31 15:44:41;;;;;;;;;;;;;;;;;;5040385;28;20375;-41
2023/03/31 15:47:08;;;;;;;;;;;;;;;;;;5041570;28;19909;-40
2023/03/31 15:49:34;;;;;;;;;;;;;;;;;;5046387;28;19979;-40
2023/03/31 15:52:02;;;;;;;;;;;;;;;;;;5037689;28;20311;-41
2023/03/31 15:54:28;;;;;;;;;;;;;;;;;;5043581;28;20009;-40
2023/03/31 15:56:54;;;;;;;;;;;;;;;;;;5040557;28;19916;-40
2023/03/31 15:59:21;;;;;;;;;;;;;;;;;;5040279;28;19908;-40
2023/03/31 16:01:47;;;;;;;;;;;;;;;;;;5052314;28;19921;-41
2023/03/31 16:04:14;;;;;;;;;;;;;;;;;;5041075;28;20310;-39
2023/03/31 16:06:40;;;;;;;;;;;;;;;;;;5040904;28;19920;-39
2023/03/31 16:09:07;;;;;;;;;;;;;;;;;;5043845;28;19978;-37
2023/03/31 16:11:33;;;;;;;;;;;;;;;;;;5039484;28;19909;-37
2023/03/31 16:14:00;;;;;;;;;;;;;;;;;;5040469;28;20584;-37
2023/03/31 16:16:26;;;;;;;;;;;;;;;;;;5040393;28;20004;-36
2023/03/31 16:18:53;;;;;;;;;;;;;;;;;;5042243;28;19939;-35
2023/03/31 16:21:19;;;;;;;;;;;;;;;;;;5032797;28;19962;-35
2023/03/31 16:23:46;;;;;;;;;;;;;;;;;;5040842;28;20327;-37
2023/03/31 16:26:12;;;;;;;;;;;;;;;;;;5042107;28;19928;-36
2023/03/31 16:28:39;;;;;;;;;;;;;;;;;;5042185;28;19908;-36
2023/03/31 16:31:05;;;;;;;;;;;;;;;;;;5040586;28;19917;-36
2023/03/31 16:33:31;;;;;;;;;;;;;;;;;;5042269;28;19916;-37
2023/03/31 16:35:58;;;;;;;;;;;;;;;;;;5042165;28;19909;-36
2023/03/31 16:38:24;;;;;;;;;;;;;;;;;;5039964;28;20433;-36
2023/03/31 16:40:52;;;;;;;;;;;;;;;;;;5040413;28;19913;-37